Terminal Aerodrome Forecast
Issued by NWS Shreveport, LA

Home | Current Version | Previous Version | Text Only | Print | Product List | Glossary On
Versions: 1 2 3 4 5 6 7 8 9 10 11 12 13 14 15 16 17 18 19
000
FTUS44 KSHV 070532
TAFSHV
TAF
KSHV 070532Z 0706/0806 15005KT P6SM SCT090 SCT250
     FM070900 15005KT P6SM SCT015 SCT250
      TEMPO 0709/0712 BKN015
     FM071200 15005KT 6SM BR OVC007
     FM071500 17009KT P6SM OVC015
     FM071600 17010KT P6SM BKN020
     FM071800 17011KT P6SM BKN035
     FM080000 16008KT P6SM SCT050 SCT250=

USA.gov is the U.S. government's official web portal to all federal, state and local government web resources and services.